sensor_id;sensor_type;location;lat;lon;timestamp;P1;durP1;ratioP1;P2;durP2;ratioP2
19173;SDS011;9719;49.322;8.536;2024-02-28T00:01:57;3.67;;;3.37;;
19173;SDS011;9719;49.322;8.536;2024-02-28T00:06:59;9.03;;;4.50;;
19173;SDS011;9719;49.322;8.536;2024-02-28T00:12:01;6.90;;;3.83;;
19173;SDS011;9719;49.322;8.536;2024-02-28T00:17:04;4.40;;;3.35;;
19173;SDS011;9719;49.322;8.536;2024-02-28T00:22:06;4.73;;;4.33;;
19173;SDS011;9719;49.322;8.536;2024-02-28T00:27:07;4.68;;;4.10;;
19173;SDS011;9719;49.322;8.536;2024-02-28T00:32:10;4.80;;;3.80;;
19173;SDS011;9719;49.322;8.536;2024-02-28T00:37:12;5.83;;;3.20;;
19173;SDS011;9719;49.322;8.536;2024-02-28T00:42:14;3.47;;;2.83;;
19173;SDS011;9719;49.322;8.536;2024-02-28T00:47:17;5.90;;;4.70;;
19173;SDS011;9719;49.322;8.536;2024-02-28T00:52:18;4.07;;;3.67;;
19173;SDS011;9719;49.322;8.536;2024-02-28T00:57:20;4.03;;;3.37;;
19173;SDS011;9719;49.322;8.536;2024-02-28T01:02:23;4.83;;;3.67;;
19173;SDS011;9719;49.322;8.536;2024-02-28T01:07:25;3.50;;;3.30;;
19173;SDS011;9719;49.322;8.536;2024-02-28T01:12:26;5.03;;;3.50;;
19173;SDS011;9719;49.322;8.536;2024-02-28T01:17:29;3.37;;;2.97;;
19173;SDS011;9719;49.322;8.536;2024-02-28T01:22:31;4.50;;;4.20;;
19173;SDS011;9719;49.322;8.536;2024-02-28T01:27:33;4.93;;;3.10;;
19173;SDS011;9719;49.322;8.536;2024-02-28T01:32:36;4.07;;;3.47;;
19173;SDS011;9719;49.322;8.536;2024-02-28T01:37:38;3.50;;;3.20;;
19173;SDS011;9719;49.322;8.536;2024-02-28T01:42:40;3.83;;;3.20;;
19173;SDS011;9719;49.322;8.536;2024-02-28T01:47:43;3.60;;;3.33;;
19173;SDS011;9719;49.322;8.536;2024-02-28T01:52:45;5.17;;;4.07;;
19173;SDS011;9719;49.322;8.536;2024-02-28T01:57:46;3.83;;;3.53;;
19173;SDS011;9719;49.322;8.536;2024-02-28T02:02:50;5.30;;;3.23;;
19173;SDS011;9719;49.322;8.536;2024-02-28T02:07:52;4.80;;;4.03;;
19173;SDS011;9719;49.322;8.536;2024-02-28T02:12:55;3.87;;;3.13;;
19173;SDS011;9719;49.322;8.536;2024-02-28T02:18:06;5.77;;;4.73;;
19173;SDS011;9719;49.322;8.536;2024-02-28T02:23:09;4.20;;;3.80;;
19173;SDS011;9719;49.322;8.536;2024-02-28T02:28:11;4.77;;;3.27;;
19173;SDS011;9719;49.322;8.536;2024-02-28T02:33:13;4.30;;;3.87;;
19173;SDS011;9719;49.322;8.536;2024-02-28T02:38:16;4.73;;;3.67;;
19173;SDS011;9719;49.322;8.536;2024-02-28T02:43:18;4.30;;;3.90;;
19173;SDS011;9719;49.322;8.536;2024-02-28T02:48:19;4.70;;;2.93;;
19173;SDS011;9719;49.322;8.536;2024-02-28T02:53:22;3.73;;;3.27;;
19173;SDS011;9719;49.322;8.536;2024-02-28T02:58:24;4.93;;;4.23;;
19173;SDS011;9719;49.322;8.536;2024-02-28T03:03:26;9.37;;;5.47;;
19173;SDS011;9719;49.322;8.536;2024-02-28T03:08:29;6.23;;;4.60;;
19173;SDS011;9719;49.322;8.536;2024-02-28T03:13:30;4.53;;;4.13;;
19173;SDS011;9719;49.322;8.536;2024-02-28T03:18:32;8.63;;;5.20;;
19173;SDS011;9719;49.322;8.536;2024-02-28T03:23:35;7.40;;;5.43;;
19173;SDS011;9719;49.322;8.536;2024-02-28T03:28:37;5.73;;;4.17;;
19173;SDS011;9719;49.322;8.536;2024-02-28T03:33:38;8.30;;;3.80;;
19173;SDS011;9719;49.322;8.536;2024-02-28T03:38:41;6.17;;;4.70;;
19173;SDS011;9719;49.322;8.536;2024-02-28T03:43:43;4.73;;;4.07;;
19173;SDS011;9719;49.322;8.536;2024-02-28T03:48:44;7.93;;;4.57;;
19173;SDS011;9719;49.322;8.536;2024-02-28T03:53:47;6.67;;;4.30;;
19173;SDS011;9719;49.322;8.536;2024-02-28T03:58:49;5.30;;;4.80;;
19173;SDS011;9719;49.322;8.536;2024-02-28T04:03:51;4.70;;;4.30;;
19173;SDS011;9719;49.322;8.536;2024-02-28T04:08:54;4.03;;;3.30;;
19173;SDS011;9719;49.322;8.536;2024-02-28T04:13:56;5.83;;;4.90;;
19173;SDS011;9719;49.322;8.536;2024-02-28T04:18:57;4.13;;;3.73;;
19173;SDS011;9719;49.322;8.536;2024-02-28T04:24:00;5.07;;;4.60;;
19173;SDS011;9719;49.322;8.536;2024-02-28T04:29:02;5.73;;;5.17;;
19173;SDS011;9719;49.322;8.536;2024-02-28T04:34:05;9.37;;;4.57;;
19173;SDS011;9719;49.322;8.536;2024-02-28T04:39:08;6.33;;;5.47;;
19173;SDS011;9719;49.322;8.536;2024-02-28T04:44:09;4.57;;;4.27;;
19173;SDS011;9719;49.322;8.536;2024-02-28T04:49:11;9.10;;;4.93;;
19173;SDS011;9719;49.322;8.536;2024-02-28T04:54:14;9.63;;;5.27;;
19173;SDS011;9719;49.322;8.536;2024-02-28T04:59:16;7.33;;;5.03;;
19173;SDS011;9719;49.322;8.536;2024-02-28T05:04:18;4.70;;;4.30;;
19173;SDS011;9719;49.322;8.536;2024-02-28T05:09:21;5.47;;;4.20;;
19173;SDS011;9719;49.322;8.536;2024-02-28T05:14:22;4.47;;;4.03;;
19173;SDS011;9719;49.322;8.536;2024-02-28T05:19:24;6.07;;;5.33;;
19173;SDS011;9719;49.322;8.536;2024-02-28T05:24:27;4.30;;;3.90;;
19173;SDS011;9719;49.322;8.536;2024-02-28T05:29:29;8.97;;;6.03;;
19173;SDS011;9719;49.322;8.536;2024-02-28T05:34:30;5.20;;;4.57;;
19173;SDS011;9719;49.322;8.536;2024-02-28T05:39:34;7.00;;;4.63;;
19173;SDS011;9719;49.322;8.536;2024-02-28T05:44:35;5.47;;;4.70;;
19173;SDS011;9719;49.322;8.536;2024-02-28T05:49:37;5.10;;;4.60;;
19173;SDS011;9719;49.322;8.536;2024-02-28T05:54:41;7.00;;;5.00;;
19173;SDS011;9719;49.322;8.536;2024-02-28T05:59:42;6.43;;;3.77;;
19173;SDS011;9719;49.322;8.536;2024-02-28T06:04:44;7.03;;;5.53;;
19173;SDS011;9719;49.322;8.536;2024-02-28T06:09:47;8.83;;;4.43;;
19173;SDS011;9719;49.322;8.536;2024-02-28T06:14:49;6.83;;;4.93;;
19173;SDS011;9719;49.322;8.536;2024-02-28T06:19:51;5.67;;;4.40;;
19173;SDS011;9719;49.322;8.536;2024-02-28T06:24:53;5.13;;;4.57;;
19173;SDS011;9719;49.322;8.536;2024-02-28T06:29:55;5.53;;;4.87;;
19173;SDS011;9719;49.322;8.536;2024-02-28T06:34:57;5.30;;;4.90;;
19173;SDS011;9719;49.322;8.536;2024-02-28T06:40:00;7.90;;;5.13;;
19173;SDS011;9719;49.322;8.536;2024-02-28T06:45:02;6.87;;;6.33;;
19173;SDS011;9719;49.322;8.536;2024-02-28T06:50:04;6.23;;;4.40;;
19173;SDS011;9719;49.322;8.536;2024-02-28T06:55:08;6.60;;;5.30;;
19173;SDS011;9719;49.322;8.536;2024-02-28T07:00:11;7.40;;;4.97;;
19173;SDS011;9719;49.322;8.536;2024-02-28T07:05:14;6.27;;;4.27;;
19173;SDS011;9719;49.322;8.536;2024-02-28T07:10:17;6.43;;;4.13;;
19173;SDS011;9719;49.322;8.536;2024-02-28T07:15:20;7.07;;;4.07;;
19173;SDS011;9719;49.322;8.536;2024-02-28T07:20:21;5.17;;;4.33;;
19173;SDS011;9719;49.322;8.536;2024-02-28T07:25:25;4.23;;;3.80;;
19173;SDS011;9719;49.322;8.536;2024-02-28T07:30:27;4.70;;;3.87;;
19173;SDS011;9719;49.322;8.536;2024-02-28T07:35:29;6.80;;;6.10;;
19173;SDS011;9719;49.322;8.536;2024-02-28T07:40:32;7.80;;;4.93;;
19173;SDS011;9719;49.322;8.536;2024-02-28T07:45:34;8.87;;;5.47;;
19173;SDS011;9719;49.322;8.536;2024-02-28T07:50:35;6.27;;;4.70;;
19173;SDS011;9719;49.322;8.536;2024-02-28T07:55:39;6.10;;;5.10;;
19173;SDS011;9719;49.322;8.536;2024-02-28T08:00:41;5.93;;;4.80;;
19173;SDS011;9719;49.322;8.536;2024-02-28T08:05:43;6.83;;;4.43;;
19173;SDS011;9719;49.322;8.536;2024-02-28T08:10:46;5.87;;;5.27;;
19173;SDS011;9719;49.322;8.536;2024-02-28T08:15:49;5.90;;;5.17;;
19173;SDS011;9719;49.322;8.536;2024-02-28T08:20:50;6.25;;;5.13;;
19173;SDS011;9719;49.322;8.536;2024-02-28T08:25:54;5.18;;;4.38;;
19173;SDS011;9719;49.322;8.536;2024-02-28T08:30:56;5.10;;;4.35;;
19173;SDS011;9719;49.322;8.536;2024-02-28T08:35:57;9.13;;;4.97;;
19173;SDS011;9719;49.322;8.536;2024-02-28T08:41:00;6.38;;;4.80;;
19173;SDS011;9719;49.322;8.536;2024-02-28T08:46:02;6.50;;;3.85;;
19173;SDS011;9719;49.322;8.536;2024-02-28T08:51:04;4.17;;;3.73;;
19173;SDS011;9719;49.322;8.536;2024-02-28T08:56:07;5.90;;;5.30;;
19173;SDS011;9719;49.322;8.536;2024-02-28T09:01:09;7.90;;;6.63;;
19173;SDS011;9719;49.322;8.536;2024-02-28T09:06:14;6.63;;;6.03;;
19173;SDS011;9719;49.322;8.536;2024-02-28T09:11:17;5.83;;;5.20;;
19173;SDS011;9719;49.322;8.536;2024-02-28T09:16:19;8.13;;;5.97;;
19173;SDS011;9719;49.322;8.536;2024-02-28T09:21:21;12.38;;;8.23;;
19173;SDS011;9719;49.322;8.536;2024-02-28T09:26:24;8.40;;;6.45;;
19173;SDS011;9719;49.322;8.536;2024-02-28T09:31:25;7.57;;;6.63;;
19173;SDS011;9719;49.322;8.536;2024-02-28T09:36:27;6.38;;;5.80;;
19173;SDS011;9719;49.322;8.536;2024-02-28T09:41:30;8.50;;;7.05;;
19173;SDS011;9719;49.322;8.536;2024-02-28T09:46:32;5.95;;;5.45;;
19173;SDS011;9719;49.322;8.536;2024-02-28T09:51:34;8.32;;;7.40;;
19173;SDS011;9719;49.322;8.536;2024-02-28T09:56:38;9.30;;;6.85;;
19173;SDS011;9719;49.322;8.536;2024-02-28T10:01:42;10.88;;;8.30;;
19173;SDS011;9719;49.322;8.536;2024-02-28T10:06:45;8.18;;;7.32;;
19173;SDS011;9719;49.322;8.536;2024-02-28T10:11:50;7.72;;;6.97;;
19173;SDS011;9719;49.322;8.536;2024-02-28T10:16:51;8.80;;;8.02;;
19173;SDS011;9719;49.322;8.536;2024-02-28T10:21:55;7.03;;;5.78;;
19173;SDS011;9719;49.322;8.536;2024-02-28T10:27:00;7.85;;;7.05;;
19173;SDS011;9719;49.322;8.536;2024-02-28T10:32:02;8.73;;;7.43;;
19173;SDS011;9719;49.322;8.536;2024-02-28T10:37:05;7.93;;;6.93;;
19173;SDS011;9719;49.322;8.536;2024-02-28T10:42:09;6.35;;;5.78;;
19173;SDS011;9719;49.322;8.536;2024-02-28T10:47:13;8.70;;;7.80;;
19173;SDS011;9719;49.322;8.536;2024-02-28T10:52:16;8.65;;;7.60;;
19173;SDS011;9719;49.322;8.536;2024-02-28T10:57:24;7.68;;;7.00;;
19173;SDS011;9719;49.322;8.536;2024-02-28T11:02:26;7.88;;;7.18;;
19173;SDS011;9719;49.322;8.536;2024-02-28T11:07:30;8.80;;;7.40;;
19173;SDS011;9719;49.322;8.536;2024-02-28T11:12:33;7.93;;;7.30;;
19173;SDS011;9719;49.322;8.536;2024-02-28T11:17:37;7.05;;;5.70;;
19173;SDS011;9719;49.322;8.536;2024-02-28T11:22:40;7.03;;;5.93;;
19173;SDS011;9719;49.322;8.536;2024-02-28T18:28:49;6.30;;;5.70;;
19173;SDS011;9719;49.322;8.536;2024-02-28T18:33:51;5.47;;;4.40;;
19173;SDS011;9719;49.322;8.536;2024-02-28T18:38:53;6.93;;;6.15;;
19173;SDS011;9719;49.322;8.536;2024-02-28T18:43:56;7.03;;;4.78;;
19173;SDS011;9719;49.322;8.536;2024-02-28T18:48:57;6.50;;;5.90;;
19173;SDS011;9719;49.322;8.536;2024-02-28T18:53:59;6.90;;;6.25;;
19173;SDS011;9719;49.322;8.536;2024-02-28T18:59:03;9.57;;;7.33;;
19173;SDS011;9719;49.322;8.536;2024-02-28T19:04:05;6.57;;;4.73;;
19173;SDS011;9719;49.322;8.536;2024-02-28T19:09:07;4.57;;;4.17;;
19173;SDS011;9719;49.322;8.536;2024-02-28T19:14:10;4.97;;;4.27;;
19173;SDS011;9719;49.322;8.536;2024-02-28T19:19:12;3.72;;;3.40;;
19173;SDS011;9719;49.322;8.536;2024-02-28T19:24:14;5.90;;;4.53;;
19173;SDS011;9719;49.322;8.536;2024-02-28T19:29:17;4.78;;;2.85;;
19173;SDS011;9719;49.322;8.536;2024-02-28T19:34:19;4.00;;;3.53;;
19173;SDS011;9719;49.322;8.536;2024-02-28T19:39:21;4.93;;;4.60;;
19173;SDS011;9719;49.322;8.536;2024-02-28T19:44:24;4.85;;;4.45;;
19173;SDS011;9719;49.322;8.536;2024-02-28T19:49:25;4.53;;;3.85;;
19173;SDS011;9719;49.322;8.536;2024-02-28T19:54:27;5.03;;;4.57;;
19173;SDS011;9719;49.322;8.536;2024-02-28T19:59:30;4.35;;;4.00;;
19173;SDS011;9719;49.322;8.536;2024-02-28T20:04:32;5.32;;;4.28;;
19173;SDS011;9719;49.322;8.536;2024-02-28T20:09:34;6.70;;;4.38;;
19173;SDS011;9719;49.322;8.536;2024-02-28T20:14:37;5.80;;;5.23;;
19173;SDS011;9719;49.322;8.536;2024-02-28T20:19:41;5.63;;;5.23;;
19173;SDS011;9719;49.322;8.536;2024-02-28T20:24:43;7.17;;;4.37;;
19173;SDS011;9719;49.322;8.536;2024-02-28T20:29:46;5.68;;;4.15;;
19173;SDS011;9719;49.322;8.536;2024-02-28T20:34:48;3.72;;;3.42;;
19173;SDS011;9719;49.322;8.536;2024-02-28T20:39:50;5.03;;;4.45;;
19173;SDS011;9719;49.322;8.536;2024-02-28T20:44:53;6.00;;;3.95;;
19173;SDS011;9719;49.322;8.536;2024-02-28T20:49:55;5.27;;;4.67;;
19173;SDS011;9719;49.322;8.536;2024-02-28T20:54:56;4.53;;;4.13;;
19173;SDS011;9719;49.322;8.536;2024-02-28T21:00:00;3.87;;;3.33;;
19173;SDS011;9719;49.322;8.536;2024-02-28T21:05:03;5.33;;;4.20;;
19173;SDS011;9719;49.322;8.536;2024-02-28T21:10:07;5.63;;;3.57;;
19173;SDS011;9719;49.322;8.536;2024-02-28T21:15:10;4.63;;;3.57;;
19173;SDS011;9719;49.322;8.536;2024-02-28T21:20:12;5.17;;;4.20;;
19173;SDS011;9719;49.322;8.536;2024-02-28T21:25:14;3.90;;;3.27;;
19173;SDS011;9719;49.322;8.536;2024-02-28T21:30:18;5.63;;;3.60;;
19173;SDS011;9719;49.322;8.536;2024-02-28T21:35:19;4.30;;;3.87;;
19173;SDS011;9719;49.322;8.536;2024-02-28T21:40:21;6.87;;;5.30;;
19173;SDS011;9719;49.322;8.536;2024-02-28T21:45:29;8.70;;;4.77;;
19173;SDS011;9719;49.322;8.536;2024-02-28T21:50:30;4.93;;;4.53;;
19173;SDS011;9719;49.322;8.536;2024-02-28T21:55:34;6.77;;;6.20;;
19173;SDS011;9719;49.322;8.536;2024-02-28T22:00:37;6.20;;;4.60;;
19173;SDS011;9719;49.322;8.536;2024-02-28T22:05:39;6.87;;;5.47;;
19173;SDS011;9719;49.322;8.536;2024-02-28T22:10:42;4.30;;;4.00;;
19173;SDS011;9719;49.322;8.536;2024-02-28T22:15:45;4.30;;;3.87;;
19173;SDS011;9719;49.322;8.536;2024-02-28T22:20:46;5.10;;;4.63;;
19173;SDS011;9719;49.322;8.536;2024-02-28T22:25:48;4.33;;;3.93;;
19173;SDS011;9719;49.322;8.536;2024-02-28T22:30:51;5.53;;;4.53;;
19173;SDS011;9719;49.322;8.536;2024-02-28T22:35:52;9.23;;;4.37;;
19173;SDS011;9719;49.322;8.536;2024-02-28T22:40:54;5.67;;;4.03;;
19173;SDS011;9719;49.322;8.536;2024-02-28T22:45:57;5.10;;;4.60;;
19173;SDS011;9719;49.322;8.536;2024-02-28T22:50:59;4.87;;;4.47;;
19173;SDS011;9719;49.322;8.536;2024-02-28T22:56:00;5.03;;;4.17;;
19173;SDS011;9719;49.322;8.536;2024-02-28T23:01:04;5.10;;;4.07;;
19173;SDS011;9719;49.322;8.536;2024-02-28T23:06:05;8.20;;;5.77;;
19173;SDS011;9719;49.322;8.536;2024-02-28T23:11:07;5.20;;;4.33;;
19173;SDS011;9719;49.322;8.536;2024-02-28T23:16:10;6.23;;;5.63;;
19173;SDS011;9719;49.322;8.536;2024-02-28T23:21:12;10.43;;;5.53;;
19173;SDS011;9719;49.322;8.536;2024-02-28T23:26:14;4.50;;;3.40;;
19173;SDS011;9719;49.322;8.536;2024-02-28T23:31:17;5.30;;;4.40;;
19173;SDS011;9719;49.322;8.536;2024-02-28T23:36:21;4.73;;;3.83;;
19173;SDS011;9719;49.322;8.536;2024-02-28T23:41:23;7.97;;;4.47;;
19173;SDS011;9719;49.322;8.536;2024-02-28T23:46:26;5.07;;;4.20;;
19173;SDS011;9719;49.322;8.536;2024-02-28T23:51:28;4.70;;;4.37;;
19173;SDS011;9719;49.322;8.536;2024-02-28T23:56:29;4.53;;;3.80;;
